sensor_id;sensor_type;location;lat;lon;timestamp;P1;durP1;ratioP1;P2;durP2;ratioP2
78027;SDS011;67235;45.638;11.714;2023-04-03T00:01:31;21.17;;;12.10;;
78027;SDS011;67235;45.638;11.714;2023-04-03T00:03:57;20.02;;;11.75;;
78027;SDS011;67235;45.638;11.714;2023-04-03T00:06:24;16.50;;;11.00;;
78027;SDS011;67235;45.638;11.714;2023-04-03T00:08:51;18.35;;;11.88;;
78027;SDS011;67235;45.638;11.714;2023-04-03T00:11:17;20.30;;;12.77;;
78027;SDS011;67235;45.638;11.714;2023-04-03T00:13:45;20.30;;;12.38;;
78027;SDS011;67235;45.638;11.714;2023-04-03T00:16:11;18.23;;;11.07;;
78027;SDS011;67235;45.638;11.714;2023-04-03T00:18:37;18.03;;;11.30;;
78027;SDS011;67235;45.638;11.714;2023-04-03T00:21:04;18.00;;;11.70;;
78027;SDS011;67235;45.638;11.714;2023-04-03T00:23:30;17.75;;;12.02;;
78027;SDS011;67235;45.638;11.714;2023-04-03T00:25:56;17.65;;;10.88;;
78027;SDS011;67235;45.638;11.714;2023-04-03T00:28:22;17.03;;;11.60;;
78027;SDS011;67235;45.638;11.714;2023-04-03T00:30:48;16.95;;;10.73;;
78027;SDS011;67235;45.638;11.714;2023-04-03T00:33:15;19.02;;;11.00;;
78027;SDS011;67235;45.638;11.714;2023-04-03T00:35:41;15.47;;;10.50;;
78027;SDS011;67235;45.638;11.714;2023-04-03T00:38:07;14.95;;;9.63;;
78027;SDS011;67235;45.638;11.714;2023-04-03T00:40:38;16.25;;;9.80;;
78027;SDS011;67235;45.638;11.714;2023-04-03T00:43:14;15.50;;;9.32;;
78027;SDS011;67235;45.638;11.714;2023-04-03T00:45:42;16.05;;;10.82;;
78027;SDS011;67235;45.638;11.714;2023-04-03T00:48:11;16.73;;;11.27;;
78027;SDS011;67235;45.638;11.714;2023-04-03T00:50:42;18.60;;;11.63;;
78027;SDS011;67235;45.638;11.714;2023-04-03T00:53:11;16.80;;;11.75;;
78027;SDS011;67235;45.638;11.714;2023-04-03T00:55:41;15.25;;;9.85;;
78027;SDS011;67235;45.638;11.714;2023-04-03T00:58:08;18.10;;;9.90;;
78027;SDS011;67235;45.638;11.714;2023-04-03T01:00:36;16.03;;;10.17;;
78027;SDS011;67235;45.638;11.714;2023-04-03T01:03:05;17.30;;;10.63;;
78027;SDS011;67235;45.638;11.714;2023-04-03T01:05:31;18.83;;;9.77;;
78027;SDS011;67235;45.638;11.714;2023-04-03T01:07:57;17.70;;;10.73;;
78027;SDS011;67235;45.638;11.714;2023-04-03T01:10:24;16.33;;;10.17;;
78027;SDS011;67235;45.638;11.714;2023-04-03T01:12:51;20.23;;;10.85;;
78027;SDS011;67235;45.638;11.714;2023-04-03T01:15:24;15.95;;;10.63;;
78027;SDS011;67235;45.638;11.714;2023-04-03T01:17:57;18.10;;;9.80;;
78027;SDS011;67235;45.638;11.714;2023-04-03T01:28:04;16.67;;;10.05;;
78027;SDS011;67235;45.638;11.714;2023-04-03T01:30:33;17.55;;;9.77;;
78027;SDS011;67235;45.638;11.714;2023-04-03T01:33:01;15.75;;;9.93;;
78027;SDS011;67235;45.638;11.714;2023-04-03T01:35:27;14.70;;;9.33;;
78027;SDS011;67235;45.638;11.714;2023-04-03T01:37:54;16.27;;;9.80;;
78027;SDS011;67235;45.638;11.714;2023-04-03T01:40:21;16.98;;;9.20;;
78027;SDS011;67235;45.638;11.714;2023-04-03T01:42:47;15.00;;;9.70;;
78027;SDS011;67235;45.638;11.714;2023-04-03T01:45:13;17.02;;;10.57;;
78027;SDS011;67235;45.638;11.714;2023-04-03T01:47:39;17.35;;;9.32;;
78027;SDS011;67235;45.638;11.714;2023-04-03T01:50:04;16.87;;;9.60;;
78027;SDS011;67235;45.638;11.714;2023-04-03T01:52:31;18.50;;;9.68;;
78027;SDS011;67235;45.638;11.714;2023-04-03T01:54:56;12.68;;;8.38;;
78027;SDS011;67235;45.638;11.714;2023-04-03T01:57:22;16.47;;;9.47;;
78027;SDS011;67235;45.638;11.714;2023-04-03T01:59:48;15.77;;;9.25;;
78027;SDS011;67235;45.638;11.714;2023-04-03T02:02:14;14.98;;;9.30;;
78027;SDS011;67235;45.638;11.714;2023-04-03T02:04:40;16.53;;;8.87;;
78027;SDS011;67235;45.638;11.714;2023-04-03T02:07:06;14.63;;;8.90;;
78027;SDS011;67235;45.638;11.714;2023-04-03T02:09:32;15.02;;;9.35;;
78027;SDS011;67235;45.638;11.714;2023-04-03T02:11:58;14.90;;;8.97;;
78027;SDS011;67235;45.638;11.714;2023-04-03T02:14:24;15.00;;;9.32;;
78027;SDS011;67235;45.638;11.714;2023-04-03T02:16:52;17.67;;;10.38;;
78027;SDS011;67235;45.638;11.714;2023-04-03T02:19:18;16.67;;;9.90;;
78027;SDS011;67235;45.638;11.714;2023-04-03T02:21:44;14.23;;;8.10;;
78027;SDS011;67235;45.638;11.714;2023-04-03T02:24:10;12.40;;;7.75;;
78027;SDS011;67235;45.638;11.714;2023-04-03T02:26:36;14.07;;;7.90;;
78027;SDS011;67235;45.638;11.714;2023-04-03T02:29:02;17.60;;;9.57;;
78027;SDS011;67235;45.638;11.714;2023-04-03T02:31:27;13.93;;;8.45;;
78027;SDS011;67235;45.638;11.714;2023-04-03T02:33:53;13.45;;;8.15;;
78027;SDS011;67235;45.638;11.714;2023-04-03T02:36:19;13.70;;;8.67;;
78027;SDS011;67235;45.638;11.714;2023-04-03T02:38:45;15.40;;;9.60;;
78027;SDS011;67235;45.638;11.714;2023-04-03T02:41:11;12.68;;;7.88;;
78027;SDS011;67235;45.638;11.714;2023-04-03T02:43:37;15.00;;;8.20;;
78027;SDS011;67235;45.638;11.714;2023-04-03T02:46:04;12.73;;;6.78;;
78027;SDS011;67235;45.638;11.714;2023-04-03T02:48:30;12.82;;;6.13;;
78027;SDS011;67235;45.638;11.714;2023-04-03T02:50:56;14.15;;;6.55;;
78027;SDS011;67235;45.638;11.714;2023-04-03T02:53:22;9.67;;;4.87;;
78027;SDS011;67235;45.638;11.714;2023-04-03T02:55:48;9.63;;;4.40;;
78027;SDS011;67235;45.638;11.714;2023-04-03T02:58:14;8.60;;;4.28;;
78027;SDS011;67235;45.638;11.714;2023-04-03T03:00:41;7.72;;;4.10;;
78027;SDS011;67235;45.638;11.714;2023-04-03T03:03:06;10.33;;;4.50;;
78027;SDS011;67235;45.638;11.714;2023-04-03T03:05:32;7.93;;;3.97;;
78027;SDS011;67235;45.638;11.714;2023-04-03T03:07:58;8.10;;;3.88;;
78027;SDS011;67235;45.638;11.714;2023-04-03T03:10:24;8.68;;;4.18;;
78027;SDS011;67235;45.638;11.714;2023-04-03T03:12:50;9.37;;;4.57;;
78027;SDS011;67235;45.638;11.714;2023-04-03T03:15:16;11.20;;;4.60;;
78027;SDS011;67235;45.638;11.714;2023-04-03T03:17:42;9.57;;;4.95;;
78027;SDS011;67235;45.638;11.714;2023-04-03T03:20:09;11.97;;;5.93;;
78027;SDS011;67235;45.638;11.714;2023-04-03T03:22:35;10.18;;;6.10;;
78027;SDS011;67235;45.638;11.714;2023-04-03T03:25:01;9.80;;;5.53;;
78027;SDS011;67235;45.638;11.714;2023-04-03T03:27:28;12.32;;;6.13;;
78027;SDS011;67235;45.638;11.714;2023-04-03T03:29:53;11.50;;;6.03;;
78027;SDS011;67235;45.638;11.714;2023-04-03T03:32:19;9.25;;;5.07;;
78027;SDS011;67235;45.638;11.714;2023-04-03T03:34:45;11.50;;;5.68;;
78027;SDS011;67235;45.638;11.714;2023-04-03T03:37:11;10.40;;;5.72;;
78027;SDS011;67235;45.638;11.714;2023-04-03T03:39:37;9.83;;;5.30;;
78027;SDS011;67235;45.638;11.714;2023-04-03T03:42:03;8.77;;;4.93;;
78027;SDS011;67235;45.638;11.714;2023-04-03T03:44:29;10.25;;;5.40;;
78027;SDS011;67235;45.638;11.714;2023-04-03T03:46:56;9.27;;;5.00;;
78027;SDS011;67235;45.638;11.714;2023-04-03T03:49:22;10.10;;;5.90;;
78027;SDS011;67235;45.638;11.714;2023-04-03T03:51:48;9.43;;;5.28;;
78027;SDS011;67235;45.638;11.714;2023-04-03T03:54:15;8.95;;;5.07;;
78027;SDS011;67235;45.638;11.714;2023-04-03T03:56:40;9.73;;;4.50;;
78027;SDS011;67235;45.638;11.714;2023-04-03T03:59:06;12.45;;;5.07;;
78027;SDS011;67235;45.638;11.714;2023-04-03T04:01:33;8.80;;;4.68;;
78027;SDS011;67235;45.638;11.714;2023-04-03T04:03:59;8.70;;;4.55;;
78027;SDS011;67235;45.638;11.714;2023-04-03T04:06:26;7.77;;;4.20;;
78027;SDS011;67235;45.638;11.714;2023-04-03T04:08:53;8.48;;;4.43;;
78027;SDS011;67235;45.638;11.714;2023-04-03T04:11:19;8.05;;;4.70;;
78027;SDS011;67235;45.638;11.714;2023-04-03T04:13:46;8.35;;;4.65;;
78027;SDS011;67235;45.638;11.714;2023-04-03T04:16:12;8.93;;;4.47;;
78027;SDS011;67235;45.638;11.714;2023-04-03T04:18:37;8.52;;;4.28;;
78027;SDS011;67235;45.638;11.714;2023-04-03T04:21:04;8.35;;;4.10;;
78027;SDS011;67235;45.638;11.714;2023-04-03T04:23:31;7.93;;;4.30;;
78027;SDS011;67235;45.638;11.714;2023-04-03T04:25:57;8.17;;;4.00;;
78027;SDS011;67235;45.638;11.714;2023-04-03T04:28:23;8.20;;;4.00;;
78027;SDS011;67235;45.638;11.714;2023-04-03T04:30:51;7.93;;;4.07;;
78027;SDS011;67235;45.638;11.714;2023-04-03T04:33:17;8.63;;;3.83;;
78027;SDS011;67235;45.638;11.714;2023-04-03T04:35:43;7.70;;;3.80;;
78027;SDS011;67235;45.638;11.714;2023-04-03T04:38:10;6.70;;;3.72;;
78027;SDS011;67235;45.638;11.714;2023-04-03T04:40:36;7.60;;;3.72;;
78027;SDS011;67235;45.638;11.714;2023-04-03T04:43:02;7.00;;;3.50;;
78027;SDS011;67235;45.638;11.714;2023-04-03T04:45:29;7.72;;;3.35;;
78027;SDS011;67235;45.638;11.714;2023-04-03T04:47:55;6.97;;;3.53;;
78027;SDS011;67235;45.638;11.714;2023-04-03T04:50:22;7.03;;;3.10;;
78027;SDS011;67235;45.638;11.714;2023-04-03T04:52:48;7.85;;;4.20;;
78027;SDS011;67235;45.638;11.714;2023-04-03T04:55:14;11.37;;;5.00;;
78027;SDS011;67235;45.638;11.714;2023-04-03T04:57:41;15.05;;;6.13;;
78027;SDS011;67235;45.638;11.714;2023-04-03T05:00:07;9.95;;;4.10;;
78027;SDS011;67235;45.638;11.714;2023-04-03T05:02:34;7.13;;;3.28;;
78027;SDS011;67235;45.638;11.714;2023-04-03T05:05:03;6.75;;;2.97;;
78027;SDS011;67235;45.638;11.714;2023-04-03T05:07:33;8.30;;;2.67;;
78027;SDS011;67235;45.638;11.714;2023-04-03T05:10:02;8.32;;;3.20;;
78027;SDS011;67235;45.638;11.714;2023-04-03T05:12:31;9.20;;;2.97;;
78027;SDS011;67235;45.638;11.714;2023-04-03T05:14:57;7.07;;;3.13;;
78027;SDS011;67235;45.638;11.714;2023-04-03T05:17:24;6.65;;;2.85;;
78027;SDS011;67235;45.638;11.714;2023-04-03T05:19:51;6.63;;;2.77;;
78027;SDS011;67235;45.638;11.714;2023-04-03T05:22:17;6.53;;;2.80;;
78027;SDS011;67235;45.638;11.714;2023-04-03T05:24:43;6.72;;;3.13;;
78027;SDS011;67235;45.638;11.714;2023-04-03T05:27:09;8.73;;;3.30;;
78027;SDS011;67235;45.638;11.714;2023-04-03T05:29:36;6.55;;;2.70;;
78027;SDS011;67235;45.638;11.714;2023-04-03T05:32:01;7.45;;;2.80;;
78027;SDS011;67235;45.638;11.714;2023-04-03T05:34:27;6.87;;;2.67;;
78027;SDS011;67235;45.638;11.714;2023-04-03T05:36:53;5.68;;;2.55;;
78027;SDS011;67235;45.638;11.714;2023-04-03T05:39:19;6.53;;;2.72;;
78027;SDS011;67235;45.638;11.714;2023-04-03T05:41:45;5.70;;;2.40;;
78027;SDS011;67235;45.638;11.714;2023-04-03T05:44:11;5.13;;;2.55;;
78027;SDS011;67235;45.638;11.714;2023-04-03T05:46:37;5.57;;;2.80;;
78027;SDS011;67235;45.638;11.714;2023-04-03T05:49:02;6.47;;;3.10;;
78027;SDS011;67235;45.638;11.714;2023-04-03T05:51:30;6.00;;;2.50;;
78027;SDS011;67235;45.638;11.714;2023-04-03T05:54:00;7.43;;;3.10;;
78027;SDS011;67235;45.638;11.714;2023-04-03T05:56:33;10.43;;;2.70;;
78027;SDS011;67235;45.638;11.714;2023-04-03T05:58:59;8.90;;;2.80;;
78027;SDS011;67235;45.638;11.714;2023-04-03T06:01:25;8.30;;;3.03;;
78027;SDS011;67235;45.638;11.714;2023-04-03T06:03:51;15.37;;;4.23;;
78027;SDS011;67235;45.638;11.714;2023-04-03T06:06:17;9.88;;;3.17;;
78027;SDS011;67235;45.638;11.714;2023-04-03T06:08:43;9.20;;;3.63;;
78027;SDS011;67235;45.638;11.714;2023-04-03T06:11:09;6.55;;;2.85;;
78027;SDS011;67235;45.638;11.714;2023-04-03T06:13:35;7.15;;;2.90;;
78027;SDS011;67235;45.638;11.714;2023-04-03T06:16:02;5.00;;;2.30;;
78027;SDS011;67235;45.638;11.714;2023-04-03T06:18:28;7.88;;;2.80;;
78027;SDS011;67235;45.638;11.714;2023-04-03T06:20:55;7.68;;;2.80;;
78027;SDS011;67235;45.638;11.714;2023-04-03T06:23:21;5.00;;;2.33;;
78027;SDS011;67235;45.638;11.714;2023-04-03T06:25:46;8.03;;;2.53;;
78027;SDS011;67235;45.638;11.714;2023-04-03T06:28:23;5.28;;;2.67;;
78027;SDS011;67235;45.638;11.714;2023-04-03T06:30:50;6.18;;;2.72;;
78027;SDS011;67235;45.638;11.714;2023-04-03T06:33:23;6.78;;;2.60;;
78027;SDS011;67235;45.638;11.714;2023-04-03T06:36:11;7.82;;;2.40;;
78027;SDS011;67235;45.638;11.714;2023-04-03T06:38:49;5.65;;;2.47;;
78027;SDS011;67235;45.638;11.714;2023-04-03T06:41:29;6.32;;;2.40;;
78027;SDS011;67235;45.638;11.714;2023-04-03T06:43:57;6.60;;;2.00;;
78027;SDS011;67235;45.638;11.714;2023-04-03T06:46:40;5.18;;;2.40;;
78027;SDS011;67235;45.638;11.714;2023-04-03T06:49:21;5.38;;;1.98;;
78027;SDS011;67235;45.638;11.714;2023-04-03T06:51:59;6.10;;;2.53;;
78027;SDS011;67235;45.638;11.714;2023-04-03T06:54:28;5.03;;;2.05;;
78027;SDS011;67235;45.638;11.714;2023-04-03T06:56:54;5.03;;;2.03;;
78027;SDS011;67235;45.638;11.714;2023-04-03T06:59:21;6.85;;;2.20;;
78027;SDS011;67235;45.638;11.714;2023-04-03T07:01:47;7.43;;;2.60;;
78027;SDS011;67235;45.638;11.714;2023-04-03T07:04:14;7.55;;;2.70;;
78027;SDS011;67235;45.638;11.714;2023-04-03T07:06:40;5.60;;;2.42;;
78027;SDS011;67235;45.638;11.714;2023-04-03T07:09:09;5.47;;;2.45;;
78027;SDS011;67235;45.638;11.714;2023-04-03T07:11:53;8.13;;;2.20;;
78027;SDS011;67235;45.638;11.714;2023-04-03T07:14:21;6.25;;;2.35;;
78027;SDS011;67235;45.638;11.714;2023-04-03T07:16:52;6.32;;;3.00;;
78027;SDS011;67235;45.638;11.714;2023-04-03T07:19:18;9.38;;;3.10;;
78027;SDS011;67235;45.638;11.714;2023-04-03T07:21:46;7.37;;;2.63;;
78027;SDS011;67235;45.638;11.714;2023-04-03T07:24:16;9.45;;;2.97;;
78027;SDS011;67235;45.638;11.714;2023-04-03T07:26:42;6.97;;;2.85;;
78027;SDS011;67235;45.638;11.714;2023-04-03T07:29:10;9.02;;;3.20;;
78027;SDS011;67235;45.638;11.714;2023-04-03T07:31:36;5.43;;;2.35;;
78027;SDS011;67235;45.638;11.714;2023-04-03T07:34:10;8.05;;;2.20;;
78027;SDS011;67235;45.638;11.714;2023-04-03T07:36:39;7.22;;;2.67;;
78027;SDS011;67235;45.638;11.714;2023-04-03T07:39:05;11.70;;;2.47;;
78027;SDS011;67235;45.638;11.714;2023-04-03T07:41:32;6.32;;;2.40;;
78027;SDS011;67235;45.638;11.714;2023-04-03T07:43:58;7.60;;;2.10;;
78027;SDS011;67235;45.638;11.714;2023-04-03T07:46:27;7.90;;;2.50;;
78027;SDS011;67235;45.638;11.714;2023-04-03T07:48:53;8.27;;;2.30;;
78027;SDS011;67235;45.638;11.714;2023-04-03T07:51:20;6.35;;;2.15;;
78027;SDS011;67235;45.638;11.714;2023-04-03T07:53:46;7.00;;;2.40;;
78027;SDS011;67235;45.638;11.714;2023-04-03T07:56:13;5.63;;;2.03;;
78027;SDS011;67235;45.638;11.714;2023-04-03T07:58:40;6.60;;;2.17;;
78027;SDS011;67235;45.638;11.714;2023-04-03T08:01:06;8.43;;;2.25;;
78027;SDS011;67235;45.638;11.714;2023-04-03T08:03:34;5.97;;;1.90;;
78027;SDS011;67235;45.638;11.714;2023-04-03T08:06:03;7.35;;;2.10;;
78027;SDS011;67235;45.638;11.714;2023-04-03T08:08:31;7.03;;;2.25;;
78027;SDS011;67235;45.638;11.714;2023-04-03T08:10:59;10.25;;;2.47;;
78027;SDS011;67235;45.638;11.714;2023-04-03T08:13:27;5.13;;;2.15;;
78027;SDS011;67235;45.638;11.714;2023-04-03T08:15:56;8.90;;;2.40;;
78027;SDS011;67235;45.638;11.714;2023-04-03T08:18:25;8.80;;;2.50;;
78027;SDS011;67235;45.638;11.714;2023-04-03T08:20:51;5.75;;;1.98;;
78027;SDS011;67235;45.638;11.714;2023-04-03T08:23:18;5.93;;;2.20;;
78027;SDS011;67235;45.638;11.714;2023-04-03T08:25:44;8.23;;;2.15;;
78027;SDS011;67235;45.638;11.714;2023-04-03T08:28:10;5.33;;;1.83;;
78027;SDS011;67235;45.638;11.714;2023-04-03T08:30:38;5.13;;;1.85;;
78027;SDS011;67235;45.638;11.714;2023-04-03T08:33:06;4.47;;;1.65;;
78027;SDS011;67235;45.638;11.714;2023-04-03T08:35:32;7.38;;;2.13;;
78027;SDS011;67235;45.638;11.714;2023-04-03T08:37:58;6.63;;;1.90;;
78027;SDS011;67235;45.638;11.714;2023-04-03T08:40:28;6.78;;;2.00;;
78027;SDS011;67235;45.638;11.714;2023-04-03T08:43:16;6.82;;;2.63;;
78027;SDS011;67235;45.638;11.714;2023-04-03T08:46:10;7.93;;;1.98;;
78027;SDS011;67235;45.638;11.714;2023-04-03T08:48:42;7.55;;;2.30;;
78027;SDS011;67235;45.638;11.714;2023-04-03T08:51:32;4.77;;;1.93;;
78027;SDS011;67235;45.638;11.714;2023-04-03T08:57:42;7.90;;;2.30;;
78027;SDS011;67235;45.638;11.714;2023-04-03T09:02:59;8.88;;;2.25;;
78027;SDS011;67235;45.638;11.714;2023-04-03T09:05:51;8.40;;;2.20;;
78027;SDS011;67235;45.638;11.714;2023-04-03T09:14:16;7.55;;;2.35;;
78027;SDS011;67235;45.638;11.714;2023-04-03T09:16:52;6.72;;;2.20;;
78027;SDS011;67235;45.638;11.714;2023-04-03T09:19:36;6.40;;;1.80;;
78027;SDS011;67235;45.638;11.714;2023-04-03T09:22:25;6.82;;;1.92;;
78027;SDS011;67235;45.638;11.714;2023-04-03T09:25:15;9.77;;;2.25;;
78027;SDS011;67235;45.638;11.714;2023-04-03T09:27:45;5.90;;;2.30;;
78027;SDS011;67235;45.638;11.714;2023-04-03T09:30:18;5.75;;;2.10;;
78027;SDS011;67235;45.638;11.714;2023-04-03T09:32:48;6.45;;;2.15;;
78027;SDS011;67235;45.638;11.714;2023-04-03T09:35:22;4.47;;;1.95;;
78027;SDS011;67235;45.638;11.714;2023-04-03T09:37:50;6.32;;;2.10;;
78027;SDS011;67235;45.638;11.714;2023-04-03T09:43:23;7.95;;;2.38;;
78027;SDS011;67235;45.638;11.714;2023-04-03T09:46:19;6.97;;;2.42;;
78027;SDS011;67235;45.638;11.714;2023-04-03T11:12:36;5.90;;;2.63;;
78027;SDS011;67235;45.638;11.714;2023-04-03T11:15:16;6.53;;;2.50;;
78027;SDS011;67235;45.638;11.714;2023-04-03T11:18:06;5.63;;;2.72;;
78027;SDS011;67235;45.638;11.714;2023-04-03T11:20:50;6.57;;;2.90;;
78027;SDS011;67235;45.638;11.714;2023-04-03T11:23:33;7.68;;;3.05;;
78027;SDS011;67235;45.638;11.714;2023-04-03T11:26:21;7.60;;;2.83;;
78027;SDS011;67235;45.638;11.714;2023-04-03T11:28:53;6.97;;;2.85;;
78027;SDS011;67235;45.638;11.714;2023-04-03T11:31:44;6.57;;;3.33;;
78027;SDS011;67235;45.638;11.714;2023-04-03T11:34:40;6.13;;;3.00;;
78027;SDS011;67235;45.638;11.714;2023-04-03T11:40:26;9.57;;;2.92;;
78027;SDS011;67235;45.638;11.714;2023-04-03T11:45:50;5.55;;;2.92;;
78027;SDS011;67235;45.638;11.714;2023-04-03T11:48:41;7.32;;;3.17;;
78027;SDS011;67235;45.638;11.714;2023-04-03T11:53:45;6.70;;;2.80;;
78027;SDS011;67235;45.638;11.714;2023-04-03T12:04:17;15.60;;;3.58;;
78027;SDS011;67235;45.638;11.714;2023-04-03T12:06:50;6.03;;;2.90;;
78027;SDS011;67235;45.638;11.714;2023-04-03T12:09:33;8.52;;;3.20;;
78027;SDS011;67235;45.638;11.714;2023-04-03T12:12:39;7.32;;;3.17;;
78027;SDS011;67235;45.638;11.714;2023-04-03T12:15:19;10.68;;;3.05;;
78027;SDS011;67235;45.638;11.714;2023-04-03T12:21:08;7.97;;;2.70;;
78027;SDS011;67235;45.638;11.714;2023-04-03T12:23:56;7.32;;;3.13;;
78027;SDS011;67235;45.638;11.714;2023-04-03T12:26:27;8.63;;;2.80;;
78027;SDS011;67235;45.638;11.714;2023-04-03T12:28:55;7.82;;;3.20;;
78027;SDS011;67235;45.638;11.714;2023-04-03T12:31:22;5.70;;;2.70;;
78027;SDS011;67235;45.638;11.714;2023-04-03T12:34:12;12.52;;;3.13;;
78027;SDS011;67235;45.638;11.714;2023-04-03T12:37:03;8.20;;;2.90;;
78027;SDS011;67235;45.638;11.714;2023-04-03T12:39:42;7.13;;;2.67;;
78027;SDS011;67235;45.638;11.714;2023-04-03T12:45:36;8.48;;;2.95;;
78027;SDS011;67235;45.638;11.714;2023-04-03T12:48:28;6.45;;;2.75;;
78027;SDS011;67235;45.638;11.714;2023-04-03T12:51:07;7.35;;;2.92;;
78027;SDS011;67235;45.638;11.714;2023-04-03T12:53:36;7.63;;;2.87;;
78027;SDS011;67235;45.638;11.714;2023-04-03T12:56:23;6.97;;;3.10;;
78027;SDS011;67235;45.638;11.714;2023-04-03T12:58:55;6.43;;;2.90;;
78027;SDS011;67235;45.638;11.714;2023-04-03T13:01:38;7.50;;;2.85;;
78027;SDS011;67235;45.638;11.714;2023-04-03T13:04:04;4.97;;;2.30;;
78027;SDS011;67235;45.638;11.714;2023-04-03T13:06:32;6.07;;;2.73;;
78027;SDS011;67235;45.638;11.714;2023-04-03T13:09:04;6.53;;;2.65;;
78027;SDS011;67235;45.638;11.714;2023-04-03T13:11:33;6.25;;;2.72;;
78027;SDS011;67235;45.638;11.714;2023-04-03T13:14:04;6.45;;;3.10;;
78027;SDS011;67235;45.638;11.714;2023-04-03T13:16:39;7.40;;;2.65;;
78027;SDS011;67235;45.638;11.714;2023-04-03T13:19:14;10.30;;;2.93;;
78027;SDS011;67235;45.638;11.714;2023-04-03T13:21:42;8.23;;;2.97;;
78027;SDS011;67235;45.638;11.714;2023-04-03T13:24:09;6.03;;;2.97;;
78027;SDS011;67235;45.638;11.714;2023-04-03T13:26:36;5.60;;;2.70;;
78027;SDS011;67235;45.638;11.714;2023-04-03T13:29:07;5.72;;;2.60;;
78027;SDS011;67235;45.638;11.714;2023-04-03T13:31:45;5.87;;;2.63;;
78027;SDS011;67235;45.638;11.714;2023-04-03T13:34:13;6.30;;;2.88;;
78027;SDS011;67235;45.638;11.714;2023-04-03T13:39:21;5.82;;;2.35;;
78027;SDS011;67235;45.638;11.714;2023-04-03T13:41:52;5.97;;;2.80;;
78027;SDS011;67235;45.638;11.714;2023-04-03T13:46:53;8.75;;;3.00;;
78027;SDS011;67235;45.638;11.714;2023-04-03T13:49:37;8.35;;;3.80;;
78027;SDS011;67235;45.638;11.714;2023-04-03T13:52:22;7.20;;;3.45;;
78027;SDS011;67235;45.638;11.714;2023-04-03T13:54:51;6.07;;;3.20;;
78027;SDS011;67235;45.638;11.714;2023-04-03T13:57:21;6.20;;;2.90;;
78027;SDS011;67235;45.638;11.714;2023-04-03T13:59:48;5.47;;;3.00;;
78027;SDS011;67235;45.638;11.714;2023-04-03T14:02:17;5.68;;;2.88;;
78027;SDS011;67235;45.638;11.714;2023-04-03T14:04:48;5.85;;;3.15;;
78027;SDS011;67235;45.638;11.714;2023-04-03T14:07:18;5.68;;;3.00;;
78027;SDS011;67235;45.638;11.714;2023-04-03T14:09:46;6.03;;;3.15;;
78027;SDS011;67235;45.638;11.714;2023-04-03T14:12:17;5.80;;;2.97;;
78027;SDS011;67235;45.638;11.714;2023-04-03T14:14:54;8.57;;;3.50;;
78027;SDS011;67235;45.638;11.714;2023-04-03T14:17:22;6.50;;;3.47;;
78027;SDS011;67235;45.638;11.714;2023-04-03T14:19:49;7.57;;;3.28;;
78027;SDS011;67235;45.638;11.714;2023-04-03T14:22:21;5.22;;;2.90;;
78027;SDS011;67235;45.638;11.714;2023-04-03T14:24:49;29.73;;;3.65;;
78027;SDS011;67235;45.638;11.714;2023-04-03T14:27:18;6.68;;;2.60;;
78027;SDS011;67235;45.638;11.714;2023-04-03T14:29:46;7.53;;;2.80;;
78027;SDS011;67235;45.638;11.714;2023-04-03T14:32:14;6.57;;;3.20;;
78027;SDS011;67235;45.638;11.714;2023-04-03T14:34:42;6.43;;;2.60;;
78027;SDS011;67235;45.638;11.714;2023-04-03T14:37:13;4.93;;;2.55;;
78027;SDS011;67235;45.638;11.714;2023-04-03T14:39:41;9.77;;;2.60;;
78027;SDS011;67235;45.638;11.714;2023-04-03T14:42:12;6.47;;;3.05;;
78027;SDS011;67235;45.638;11.714;2023-04-03T14:44:40;5.65;;;1.95;;
78027;SDS011;67235;45.638;11.714;2023-04-03T14:47:08;6.88;;;1.98;;
78027;SDS011;67235;45.638;11.714;2023-04-03T14:49:39;7.82;;;2.30;;
78027;SDS011;67235;45.638;11.714;2023-04-03T14:52:06;10.82;;;2.75;;
78027;SDS011;67235;45.638;11.714;2023-04-03T14:54:42;10.07;;;2.33;;
78027;SDS011;67235;45.638;11.714;2023-04-03T14:57:26;7.53;;;1.70;;
78027;SDS011;67235;45.638;11.714;2023-04-03T15:00:42;8.93;;;2.38;;
78027;SDS011;67235;45.638;11.714;2023-04-03T15:03:18;10.18;;;1.60;;
78027;SDS011;67235;45.638;11.714;2023-04-03T15:05:46;9.45;;;2.10;;
78027;SDS011;67235;45.638;11.714;2023-04-03T15:10:44;4.20;;;1.23;;
78027;SDS011;67235;45.638;11.714;2023-04-03T15:13:10;6.18;;;1.40;;
78027;SDS011;67235;45.638;11.714;2023-04-03T15:15:41;5.50;;;1.70;;
78027;SDS011;67235;45.638;11.714;2023-04-03T15:18:17;5.10;;;1.40;;
78027;SDS011;67235;45.638;11.714;2023-04-03T15:20:47;8.18;;;1.25;;
78027;SDS011;67235;45.638;11.714;2023-04-03T15:23:14;5.95;;;1.38;;
78027;SDS011;67235;45.638;11.714;2023-04-03T15:25:43;6.00;;;1.42;;
78027;SDS011;67235;45.638;11.714;2023-04-03T15:28:19;7.22;;;1.50;;
78027;SDS011;67235;45.638;11.714;2023-04-03T15:31:02;7.67;;;1.50;;
78027;SDS011;67235;45.638;11.714;2023-04-03T15:33:29;8.20;;;1.60;;
78027;SDS011;67235;45.638;11.714;2023-04-03T15:35:59;7.43;;;1.85;;
78027;SDS011;67235;45.638;11.714;2023-04-03T15:38:26;6.40;;;1.80;;
78027;SDS011;67235;45.638;11.714;2023-04-03T15:40:52;6.57;;;1.60;;
78027;SDS011;67235;45.638;11.714;2023-04-03T15:43:19;4.80;;;1.50;;
78027;SDS011;67235;45.638;11.714;2023-04-03T15:45:45;7.70;;;1.60;;
78027;SDS011;67235;45.638;11.714;2023-04-03T15:48:12;7.15;;;1.60;;
78027;SDS011;67235;45.638;11.714;2023-04-03T15:50:38;6.80;;;1.48;;
78027;SDS011;67235;45.638;11.714;2023-04-03T15:53:04;5.82;;;2.05;;
78027;SDS011;67235;45.638;11.714;2023-04-03T15:55:32;10.40;;;2.35;;
78027;SDS011;67235;45.638;11.714;2023-04-03T15:57:59;7.70;;;2.25;;
78027;SDS011;67235;45.638;11.714;2023-04-03T16:00:26;5.78;;;1.55;;
78027;SDS011;67235;45.638;11.714;2023-04-03T16:02:57;11.07;;;2.30;;
78027;SDS011;67235;45.638;11.714;2023-04-03T16:05:26;8.20;;;2.10;;
78027;SDS011;67235;45.638;11.714;2023-04-03T16:07:52;4.72;;;1.70;;
78027;SDS011;67235;45.638;11.714;2023-04-03T16:10:20;6.38;;;1.58;;
78027;SDS011;67235;45.638;11.714;2023-04-03T16:12:47;6.93;;;2.03;;
78027;SDS011;67235;45.638;11.714;2023-04-03T16:15:13;6.53;;;2.07;;
78027;SDS011;67235;45.638;11.714;2023-04-03T16:17:39;7.60;;;1.95;;
78027;SDS011;67235;45.638;11.714;2023-04-03T16:20:09;6.70;;;1.60;;
78027;SDS011;67235;45.638;11.714;2023-04-03T16:22:36;5.05;;;1.45;;
78027;SDS011;67235;45.638;11.714;2023-04-03T16:25:03;7.07;;;1.50;;
78027;SDS011;67235;45.638;11.714;2023-04-03T16:27:33;7.43;;;1.48;;
78027;SDS011;67235;45.638;11.714;2023-04-03T16:30:01;5.45;;;1.30;;
78027;SDS011;67235;45.638;11.714;2023-04-03T16:32:29;6.60;;;1.25;;
78027;SDS011;67235;45.638;11.714;2023-04-03T16:35:04;3.47;;;0.90;;
78027;SDS011;67235;45.638;11.714;2023-04-03T16:37:30;6.93;;;1.85;;
78027;SDS011;67235;45.638;11.714;2023-04-03T16:39:56;5.25;;;1.60;;
78027;SDS011;67235;45.638;11.714;2023-04-03T16:42:23;4.60;;;1.30;;
78027;SDS011;67235;45.638;11.714;2023-04-03T16:44:50;5.15;;;1.40;;
78027;SDS011;67235;45.638;11.714;2023-04-03T16:47:16;7.70;;;1.60;;
78027;SDS011;67235;45.638;11.714;2023-04-03T16:49:44;5.45;;;1.70;;
78027;SDS011;67235;45.638;11.714;2023-04-03T16:52:10;6.07;;;1.55;;
78027;SDS011;67235;45.638;11.714;2023-04-03T16:54:36;7.38;;;1.98;;
78027;SDS011;67235;45.638;11.714;2023-04-03T16:57:02;5.53;;;1.20;;
78027;SDS011;67235;45.638;11.714;2023-04-03T16:59:28;5.97;;;1.70;;
78027;SDS011;67235;45.638;11.714;2023-04-03T17:01:54;6.65;;;1.60;;
78027;SDS011;67235;45.638;11.714;2023-04-03T17:04:20;11.52;;;3.08;;